createdAt,value
2023-10-31T00:00:37.548Z,3.03
2023-10-31T00:04:39.098Z,2.97
2023-10-31T00:08:40.549Z,2.70
2023-10-31T00:12:42.073Z,2.87
2023-10-31T00:16:44.903Z,2.70
2023-10-31T00:20:47.820Z,3.27
2023-10-31T00:24:49.265Z,3.27
2023-10-31T00:28:50.737Z,2.83
2023-10-31T00:32:53.589Z,2.07
2023-10-31T00:36:55.077Z,2.20
2023-10-31T00:40:56.609Z,2.13
2023-10-31T00:44:58.079Z,2.30
2023-10-31T00:49:00.820Z,2.00
2023-10-31T00:53:02.314Z,1.87
2023-10-31T00:57:04.083Z,1.73
2023-10-31T01:01:05.649Z,2.20
2023-10-31T01:05:09.064Z,2.17
2023-10-31T01:09:10.738Z,1.90
2023-10-31T01:13:12.184Z,2.17
2023-10-31T01:17:13.713Z,1.67
2023-10-31T01:21:16.585Z,1.40
2023-10-31T01:25:18.038Z,1.80
2023-10-31T01:29:19.500Z,1.77
2023-10-31T01:33:21.029Z,1.60
2023-10-31T01:37:23.858Z,1.53
2023-10-31T01:41:25.288Z,1.30
2023-10-31T01:45:26.746Z,1.37
2023-10-31T01:49:28.226Z,1.30
2023-10-31T01:53:32.722Z,1.57
2023-10-31T01:57:34.427Z,1.20
2023-10-31T02:01:39.386Z,1.37
2023-10-31T02:05:40.891Z,1.57
2023-10-31T02:09:43.745Z,1.23
2023-10-31T02:13:45.226Z,1.40
2023-10-31T02:17:46.884Z,1.33
2023-10-31T02:21:49.729Z,1.73
2023-10-31T02:25:51.245Z,1.57
2023-10-31T02:29:52.907Z,1.90
2023-10-31T02:33:54.753Z,2.00
2023-10-31T02:37:57.579Z,1.70
2023-10-31T02:41:59.052Z,1.80
2023-10-31T02:46:00.524Z,1.70
2023-10-31T02:50:02.072Z,1.57
2023-10-31T02:54:05.932Z,1.40
2023-10-31T02:58:07.397Z,1.63
2023-10-31T03:02:08.958Z,1.63
2023-10-31T03:06:10.478Z,1.87
2023-10-31T03:10:13.266Z,1.60
2023-10-31T03:14:14.928Z,1.40
2023-10-31T03:18:16.662Z,1.50
2023-10-31T03:22:18.138Z,1.50
2023-10-31T03:26:20.929Z,1.30
2023-10-31T03:30:22.380Z,1.57
2023-10-31T03:34:23.825Z,1.20
2023-10-31T03:38:25.320Z,1.40
2023-10-31T03:42:28.163Z,1.03
2023-10-31T03:46:29.651Z,1.10
2023-10-31T03:50:31.110Z,1.20
2023-10-31T03:54:32.540Z,1.20
2023-10-31T03:58:35.358Z,1.20
2023-10-31T04:02:36.799Z,1.07
2023-10-31T04:06:38.312Z,1.20
2023-10-31T04:10:39.791Z,1.10
2023-10-31T04:14:42.580Z,1.23
2023-10-31T04:18:44.145Z,0.97
2023-10-31T04:22:45.757Z,1.20
2023-10-31T04:26:47.206Z,1.20
2023-10-31T04:30:50.147Z,1.10
2023-10-31T04:34:51.651Z,0.90
2023-10-31T04:38:53.210Z,1.30
2023-10-31T04:42:55.264Z,1.10
2023-10-31T04:46:58.517Z,1.17
2023-10-31T04:51:00.198Z,1.10
2023-10-31T04:55:01.734Z,1.13
2023-10-31T04:59:03.668Z,1.20
2023-10-31T05:03:06.663Z,1.30
2023-10-31T05:07:08.229Z,1.43
2023-10-31T05:11:09.719Z,1.10
2023-10-31T05:15:11.386Z,1.10
2023-10-31T05:19:14.215Z,1.30
2023-10-31T05:23:15.702Z,1.30
2023-10-31T05:27:17.198Z,1.23
2023-10-31T05:31:18.868Z,1.17
2023-10-31T05:35:22.137Z,1.30
2023-10-31T05:39:23.593Z,1.40
2023-10-31T05:43:25.050Z,1.40
2023-10-31T05:47:26.566Z,1.47
2023-10-31T05:51:29.412Z,1.53
2023-10-31T05:55:30.910Z,1.50
2023-10-31T05:59:32.456Z,1.50
2023-10-31T06:03:34.007Z,1.70
2023-10-31T06:07:36.885Z,1.30
2023-10-31T06:11:41.492Z,1.60
2023-10-31T06:15:43.256Z,1.70
2023-10-31T06:19:44.708Z,1.80
2023-10-31T06:23:47.490Z,1.53
2023-10-31T06:27:48.947Z,1.80
2023-10-31T06:31:50.479Z,1.73
2023-10-31T06:35:51.929Z,1.80
2023-10-31T06:39:54.754Z,1.90
2023-10-31T06:43:56.244Z,1.60
2023-10-31T06:47:57.793Z,1.70
2023-10-31T06:51:59.282Z,1.93
2023-10-31T06:56:02.130Z,2.00
2023-10-31T07:00:04.536Z,1.97
2023-10-31T07:04:06.643Z,2.60
2023-10-31T07:08:08.607Z,1.90
2023-10-31T07:12:11.425Z,2.03
2023-10-31T07:16:12.954Z,2.30
2023-10-31T07:20:14.735Z,2.30
2023-10-31T07:24:16.219Z,1.93
2023-10-31T07:28:18.991Z,2.03
2023-10-31T07:32:20.494Z,2.43
2023-10-31T07:36:21.964Z,1.90
2023-10-31T07:40:23.410Z,2.03
2023-10-31T07:44:26.239Z,1.80
2023-10-31T07:48:27.688Z,1.90
2023-10-31T07:52:29.137Z,1.60
2023-10-31T07:56:30.591Z,1.87
2023-10-31T08:00:33.395Z,2.00
2023-10-31T08:04:34.872Z,2.10
2023-10-31T08:08:36.295Z,2.13
2023-10-31T08:12:37.784Z,2.10
2023-10-31T08:16:40.616Z,2.10
2023-10-31T08:20:42.118Z,1.80
2023-10-31T08:24:43.717Z,1.90
2023-10-31T08:28:45.236Z,2.10
2023-10-31T08:32:48.012Z,2.50
2023-10-31T08:36:49.484Z,2.37
2023-10-31T08:40:51.055Z,2.60
2023-10-31T08:44:52.592Z,2.43
2023-10-31T08:48:55.406Z,2.17
2023-10-31T08:52:58.114Z,2.10
2023-10-31T08:57:00.231Z,2.30
2023-10-31T09:01:01.786Z,1.90
2023-10-31T09:05:05.381Z,2.10
2023-10-31T09:09:06.830Z,1.83
2023-10-31T09:13:08.309Z,1.73
2023-10-31T09:17:09.896Z,1.70
2023-10-31T09:21:12.721Z,1.43
2023-10-31T09:25:14.162Z,1.70
2023-10-31T09:29:25.667Z,1.43
2023-10-31T09:33:31.353Z,1.53
2023-10-31T09:37:34.288Z,1.10
2023-10-31T09:41:36.161Z,1.20
2023-10-31T09:45:37.726Z,1.30
2023-10-31T09:49:39.214Z,1.27
2023-10-31T09:53:45.099Z,1.20
2023-10-31T09:57:46.918Z,1.00
2023-10-31T10:01:48.420Z,1.10
2023-10-31T10:05:50.609Z,1.10
2023-10-31T10:09:53.372Z,1.10
2023-10-31T10:13:54.884Z,1.00
2023-10-31T10:17:56.440Z,1.10
2023-10-31T10:21:59.647Z,0.83
2023-10-31T10:26:03.734Z,0.97
2023-10-31T10:30:06.886Z,0.90
2023-10-31T10:34:11.330Z,1.00
2023-10-31T10:38:14.441Z,0.90
2023-10-31T10:42:18.637Z,0.90
2023-10-31T10:46:22.118Z,0.90
2023-10-31T10:50:24.327Z,0.80
2023-10-31T10:54:30.791Z,0.90
2023-10-31T10:58:42.241Z,0.87
2023-10-31T11:02:44.684Z,0.80
2023-10-31T11:06:46.636Z,0.80
2023-10-31T11:10:49.762Z,0.70
2023-10-31T11:14:53.141Z,0.90
2023-10-31T11:18:55.054Z,0.90
2023-10-31T11:22:57.241Z,0.70
2023-10-31T11:27:01.440Z,0.67
2023-10-31T11:31:04.575Z,0.80
2023-10-31T11:35:07.998Z,0.80
2023-10-31T11:39:13.508Z,0.90
2023-10-31T11:43:15.000Z,1.63
2023-10-31T11:47:17.864Z,0.80
2023-10-31T11:51:19.476Z,0.90
2023-10-31T11:55:21.130Z,1.20
2023-10-31T11:59:22.643Z,1.10
2023-10-31T12:03:25.629Z,0.60
2023-10-31T12:07:27.235Z,0.77
2023-10-31T12:11:28.736Z,0.90
2023-10-31T12:15:30.247Z,1.00
2023-10-31T12:19:33.213Z,1.10
2023-10-31T12:23:35.335Z,1.50
2023-10-31T12:27:43.687Z,1.03
2023-10-31T12:31:47.530Z,1.00
2023-10-31T12:35:50.627Z,1.00
2023-10-31T12:39:52.267Z,0.97
2023-10-31T12:43:54.047Z,1.20
2023-10-31T12:48:02.166Z,0.90
2023-10-31T12:52:05.782Z,0.80
2023-10-31T12:56:07.644Z,1.10
2023-10-31T13:00:10.152Z,1.13
2023-10-31T13:04:11.970Z,1.00
2023-10-31T13:08:16.384Z,1.10
2023-10-31T13:12:17.875Z,1.10
2023-10-31T13:16:19.393Z,1.00
2023-10-31T13:20:22.132Z,1.40
2023-10-31T13:24:24.954Z,1.20
2023-10-31T13:28:26.412Z,1.10
2023-10-31T13:32:28.043Z,1.00
2023-10-31T13:36:29.700Z,0.97
2023-10-31T13:40:32.499Z,1.40
2023-10-31T13:44:34.008Z,0.97
2023-10-31T13:48:35.621Z,1.20
2023-10-31T13:52:37.100Z,1.40
2023-10-31T13:56:39.989Z,1.20
2023-10-31T14:00:42.251Z,1.10
2023-10-31T14:04:44.083Z,0.97
2023-10-31T14:08:45.609Z,1.20
2023-10-31T14:12:48.445Z,1.10
2023-10-31T14:16:49.925Z,1.07
2023-10-31T14:20:51.611Z,1.07
2023-10-31T14:24:53.155Z,1.00
2023-10-31T14:28:56.188Z,1.10
2023-10-31T14:32:57.676Z,1.10
2023-10-31T14:36:59.200Z,1.13
2023-10-31T14:41:00.765Z,1.00
2023-10-31T14:45:04.259Z,1.03
2023-10-31T14:49:05.716Z,1.00
2023-10-31T14:53:07.257Z,1.60
2023-10-31T14:57:08.744Z,1.13
2023-10-31T15:01:11.567Z,1.37
2023-10-31T15:05:13.279Z,1.10
2023-10-31T15:09:14.828Z,1.07
2023-10-31T15:13:16.300Z,1.33
2023-10-31T15:17:19.129Z,0.93
2023-10-31T15:21:20.924Z,1.43
2023-10-31T15:25:22.664Z,1.20
2023-10-31T15:29:24.360Z,1.40
2023-10-31T15:33:27.232Z,1.30
2023-10-31T15:37:28.699Z,1.20
2023-10-31T15:41:30.208Z,1.17
2023-10-31T15:45:31.814Z,1.20
2023-10-31T15:49:35.812Z,1.23
2023-10-31T15:53:37.309Z,1.50
2023-10-31T15:57:38.838Z,1.23
2023-10-31T16:01:40.306Z,1.20
2023-10-31T16:05:43.302Z,1.30
2023-10-31T16:09:44.862Z,1.33
2023-10-31T16:13:46.332Z,1.20
2023-10-31T16:17:47.816Z,1.43
2023-10-31T16:21:51.462Z,1.30
2023-10-31T16:25:52.907Z,1.40
2023-10-31T16:29:54.385Z,1.47
2023-10-31T16:33:55.968Z,1.40
2023-10-31T16:37:58.800Z,1.33
2023-10-31T16:42:00.285Z,1.23
2023-10-31T16:46:01.781Z,1.37
2023-10-31T16:50:03.469Z,1.03
2023-10-31T16:54:07.468Z,1.10
2023-10-31T16:58:08.926Z,1.10
2023-10-31T17:02:10.460Z,1.57
2023-10-31T17:06:13.202Z,1.23
2023-10-31T17:10:17.409Z,1.40
2023-10-31T17:14:19.040Z,1.30
2023-10-31T17:18:20.557Z,1.30
2023-10-31T17:22:22.070Z,1.10
2023-10-31T17:26:24.893Z,1.00
2023-10-31T17:30:26.345Z,1.20
2023-10-31T17:34:27.820Z,1.03
2023-10-31T17:38:29.427Z,1.00
2023-10-31T17:42:32.324Z,1.07
2023-10-31T17:46:33.791Z,1.10
2023-10-31T17:50:35.411Z,1.30
2023-10-31T17:54:36.984Z,1.20
2023-10-31T17:58:39.771Z,1.10
2023-10-31T18:02:41.418Z,1.07
2023-10-31T18:06:42.954Z,1.20
2023-10-31T18:10:44.467Z,1.10
2023-10-31T18:14:47.267Z,1.20
2023-10-31T18:18:48.712Z,1.00
2023-10-31T18:22:50.189Z,1.03
2023-10-31T18:26:51.774Z,1.27
2023-10-31T18:30:54.637Z,0.90
2023-10-31T18:34:56.105Z,1.13
2023-10-31T18:38:57.583Z,1.30
2023-10-31T18:42:59.117Z,1.00
2023-10-31T18:47:01.927Z,1.00
2023-10-31T18:51:05.786Z,1.10
2023-10-31T18:55:08.080Z,1.20
2023-10-31T18:59:09.572Z,1.33
2023-10-31T19:03:12.479Z,1.10
2023-10-31T19:07:14.055Z,1.40
2023-10-31T19:11:15.557Z,1.03
2023-10-31T19:15:17.012Z,1.30
2023-10-31T19:19:19.776Z,1.50
2023-10-31T19:23:21.305Z,1.83
2023-10-31T19:27:22.784Z,1.20
2023-10-31T19:31:24.284Z,1.63
2023-10-31T19:35:27.232Z,1.40
2023-10-31T19:39:28.686Z,1.50
2023-10-31T19:43:30.224Z,1.50
2023-10-31T19:47:31.828Z,1.63
2023-10-31T19:51:34.738Z,2.07
2023-10-31T19:55:36.208Z,1.47
2023-10-31T19:59:39.195Z,1.67
2023-10-31T20:03:40.841Z,1.40
2023-10-31T20:07:43.718Z,1.40
2023-10-31T20:11:45.224Z,1.47
2023-10-31T20:15:46.729Z,1.70
2023-10-31T20:19:48.223Z,2.00
2023-10-31T20:23:51.204Z,1.10
2023-10-31T20:27:52.658Z,3.10
2023-10-31T20:31:54.116Z,1.90
2023-10-31T20:35:55.577Z,1.60
2023-10-31T20:39:58.526Z,1.57
2023-10-31T20:43:59.967Z,1.60
2023-10-31T20:48:01.528Z,1.67
2023-10-31T20:52:03.161Z,1.77
2023-10-31T20:56:07.331Z,1.50
2023-10-31T21:00:10.168Z,1.60
2023-10-31T21:04:11.694Z,1.47
2023-10-31T21:08:13.184Z,1.30
2023-10-31T21:12:16.043Z,1.30
2023-10-31T21:16:17.635Z,1.73
2023-10-31T21:20:19.141Z,1.60
2023-10-31T21:24:20.706Z,1.90
2023-10-31T21:28:23.648Z,1.60
2023-10-31T21:32:25.136Z,1.83
2023-10-31T21:36:26.670Z,1.60
2023-10-31T21:40:28.123Z,1.90
2023-10-31T21:44:30.982Z,1.57
2023-10-31T21:48:32.462Z,1.40
2023-10-31T21:52:33.966Z,1.20
2023-10-31T21:56:35.629Z,1.40
2023-10-31T22:00:38.525Z,1.10
2023-10-31T22:04:40.120Z,1.17
2023-10-31T22:08:41.633Z,1.40
2023-10-31T22:12:43.118Z,1.50
2023-10-31T22:16:45.884Z,1.40
2023-10-31T22:20:47.309Z,1.43
2023-10-31T22:24:48.805Z,1.50
2023-10-31T22:28:50.242Z,1.20
2023-10-31T22:32:53.047Z,1.30
2023-10-31T22:36:54.559Z,1.47
2023-10-31T22:40:56.002Z,1.73
2023-10-31T22:44:57.488Z,1.63
2023-10-31T22:49:00.267Z,1.53
2023-10-31T22:53:01.716Z,1.70
2023-10-31T22:57:03.691Z,1.60
2023-10-31T23:01:05.206Z,1.50
2023-10-31T23:05:10.066Z,1.60
2023-10-31T23:09:16.649Z,2.07
2023-10-31T23:13:18.497Z,2.73
2023-10-31T23:17:19.958Z,1.47
2023-10-31T23:21:22.758Z,2.40
2023-10-31T23:25:24.336Z,1.83
2023-10-31T23:29:25.873Z,1.80
2023-10-31T23:33:28.657Z,1.90
2023-10-31T23:37:32.586Z,1.73
2023-10-31T23:41:34.152Z,1.97
2023-10-31T23:45:35.613Z,1.93
2023-10-31T23:49:37.170Z,2.00
2023-10-31T23:53:39.978Z,2.00
2023-10-31T23:57:41.439Z,2.00
